Time;durP1;ratioP1;P1;durP2;ratioP2;P2;SDS_P1;SDS_P2;PMS_P1;PMS_P2;Temp;Humidity;BMP_temperature;BMP_pressure;BME280_temperature;BME280_humidity;BME280_pressure;Samples;Min_cycle;Max_cycle;Signal;HPM_P1;HPM_P2
2022/09/30 00:02:05;;;;;;;15.23;10.03;;;7.30;99.90;;;;;;5247681;28;20461;-48
2022/09/30 00:04:36;;;;;;;10.33;9.20;;;7.30;99.90;;;;;;5246925;28;20186;-49
2022/09/30 00:07:06;;;;;;;11.23;8.87;;;7.30;99.90;;;;;;5244029;28;20637;-49
2022/09/30 00:09:37;;;;;;;11.60;8.40;;;7.30;99.90;;;;;;5246263;28;20638;-48
2022/09/30 00:12:08;;;;;;;8.93;8.00;;;7.20;99.90;;;;;;5242203;28;20185;-48
2022/09/30 00:14:39;;;;;;;11.20;8.87;;;7.20;99.90;;;;;;5245271;28;20633;-47
2022/09/30 00:17:09;;;;;;;13.83;8.87;;;7.20;99.90;;;;;;5246896;28;20526;-48
2022/09/30 00:19:40;;;;;;;9.87;8.43;;;7.20;99.90;;;;;;5249254;28;20182;-49
2022/09/30 00:22:11;;;;;;;10.43;7.60;;;7.20;99.90;;;;;;5241758;28;20802;-49
2022/09/30 00:24:41;;;;;;;9.43;8.47;;;7.20;99.90;;;;;;5244517;28;20229;-47
2022/09/30 00:27:16;;;;;;;9.93;9.03;;;7.10;99.90;;;;;;5239666;28;20202;-49
2022/09/30 00:29:47;;;;;;;11.73;9.00;;;7.10;99.90;;;;;;5246181;28;20263;-49
2022/09/30 00:32:17;;;;;;;9.97;8.90;;;7.10;99.90;;;;;;5242604;28;20469;-48
2022/09/30 00:34:51;;;;;;;10.80;8.30;;;7.10;99.90;;;;;;5230969;28;20178;-48
2022/09/30 00:37:22;;;;;;;13.87;9.47;;;7.10;99.90;;;;;;5234951;28;20190;-48
2022/09/30 00:39:52;;;;;;;11.23;8.27;;;7.00;99.90;;;;;;5237862;28;20429;-46
2022/09/30 00:42:28;;;;;;;9.07;8.17;;;7.00;99.90;;;;;;5240206;28;20210;-47
2022/09/30 00:45:05;;;;;;;9.10;8.20;;;7.00;99.90;;;;;;5245322;28;20265;-48
2022/09/30 00:47:48;;;;;;;11.80;9.17;;;7.00;99.90;;;;;;5241320;28;20524;-49
2022/09/30 00:50:24;;;;;;;12.90;9.80;;;7.00;99.90;;;;;;5242749;28;20936;-47
2022/09/30 00:53:17;;;;;;;8.60;7.70;;;7.00;99.90;;;;;;5243786;28;20431;-48
2022/09/30 00:56:07;;;;;;;13.37;10.30;;;7.00;99.90;;;;;;5199812;28;20563;-49
2022/09/30 00:58:50;;;;;;;11.43;9.30;;;7.00;99.90;;;;;;5243215;28;20474;-48
2022/09/30 01:01:21;;;;;;;11.60;8.53;;;7.00;99.90;;;;;;5241589;28;20464;-48
2022/09/30 01:04:09;;;;;;;16.03;9.57;;;6.90;99.90;;;;;;5252428;28;20435;-48
2022/09/30 01:06:41;;;;;;;9.07;8.13;;;6.90;99.90;;;;;;5244256;28;20483;-49
2022/09/30 01:09:12;;;;;;;9.97;8.97;;;6.80;99.90;;;;;;5245953;28;20439;-49
2022/09/30 01:11:43;;;;;;;9.70;8.50;;;6.90;99.90;;;;;;5239089;28;20446;-46
2022/09/30 01:14:18;;;;;;;10.93;9.20;;;6.90;99.90;;;;;;5241962;28;20841;-50
2022/09/30 01:16:59;;;;;;;12.13;8.83;;;6.90;99.90;;;;;;5237945;28;20214;-49
2022/09/30 01:20:07;;;;;;;10.23;9.03;;;6.90;99.90;;;;;;5240835;28;20432;-49
2022/09/30 01:23:03;;;;;;;11.07;8.93;;;6.90;99.90;;;;;;5240139;28;20468;-48
2022/09/30 01:26:02;;;;;;;13.90;8.90;;;6.80;99.90;;;;;;5245325;28;20455;-48
2022/09/30 01:29:11;;;;;;;9.30;8.03;;;6.80;99.90;;;;;;5247328;28;20435;-49
2022/09/30 01:31:47;;;;;;;9.80;7.83;;;6.80;99.90;;;;;;5260444;28;20506;-50
2022/09/30 01:34:28;;;;;;;9.73;7.37;;;6.80;99.90;;;;;;5248722;28;20439;-50
2022/09/30 01:37:14;;;;;;;9.43;8.43;;;6.80;99.90;;;;;;5263743;28;20979;-48
2022/09/30 01:40:02;;;;;;;9.97;8.80;;;6.70;99.90;;;;;;5252741;28;20443;-48
2022/09/30 01:43:06;;;;;;;11.20;8.70;;;6.80;99.90;;;;;;5248692;28;20533;-47
2022/09/30 01:45:45;;;;;;;10.10;8.63;;;6.70;99.90;;;;;;5245424;28;20458;-49
2022/09/30 01:48:45;;;;;;;12.73;7.97;;;6.70;99.90;;;;;;5247396;28;20816;-48
2022/09/30 01:51:31;;;;;;;8.47;7.63;;;6.70;99.90;;;;;;5248562;28;20432;-49
2022/09/30 01:54:32;;;;;;;8.93;7.80;;;6.70;99.90;;;;;;5248653;28;20435;-48
2022/09/30 01:57:16;;;;;;;11.67;7.50;;;6.70;99.90;;;;;;5239892;28;20456;-48
2022/09/30 02:00:05;;;;;;;8.03;7.30;;;6.70;99.90;;;;;;5253941;28;20443;-49
2022/09/30 02:02:43;;;;;;;8.23;7.43;;;6.60;99.90;;;;;;5248276;28;20497;-48
2022/09/30 02:05:37;;;;;;;7.60;7.00;;;6.60;99.90;;;;;;5250208;28;20523;-48
2022/09/30 02:08:29;;;;;;;9.83;8.83;;;6.60;99.90;;;;;;5252945;28;20429;-49
2022/09/30 02:11:06;;;;;;;9.87;7.63;;;6.60;99.90;;;;;;5251376;28;20442;-47
2022/09/30 02:13:46;;;;;;;10.00;7.70;;;6.60;99.90;;;;;;5252072;28;20473;-48
2022/09/30 02:16:27;;;;;;;16.80;8.03;;;6.60;99.90;;;;;;5241645;28;20503;-48
2022/09/30 02:19:08;;;;;;;10.20;8.13;;;6.60;99.90;;;;;;5256627;28;20436;-48
2022/09/30 02:21:41;;;;;;;9.23;7.60;;;6.60;99.90;;;;;;5251270;28;20470;-49
2022/09/30 02:24:16;;;;;;;8.90;8.00;;;6.60;99.90;;;;;;5247536;28;20469;-49
2022/09/30 02:26:47;;;;;;;9.30;8.30;;;6.50;99.90;;;;;;5250955;28;20459;-48
2022/09/30 02:29:29;;;;;;;9.67;7.63;;;6.50;99.90;;;;;;5246807;28;20535;-47
2022/09/30 02:32:29;;;;;;;14.50;9.13;;;6.50;99.90;;;;;;5246398;28;20959;-50
2022/09/30 02:35:05;;;;;;;9.53;8.30;;;6.50;99.90;;;;;;5245319;28;20440;-50
2022/09/30 02:37:40;;;;;;;8.80;7.83;;;6.50;99.90;;;;;;5247515;28;20443;-49
2022/09/30 02:40:23;;;;;;;9.50;8.60;;;6.50;99.90;;;;;;5244047;28;20432;-49
2022/09/30 02:42:54;;;;;;;9.70;8.70;;;6.50;99.90;;;;;;5242814;28;20545;-50
2022/09/30 02:45:26;;;;;;;14.13;8.37;;;6.50;99.90;;;;;;5242762;28;20459;-49
2022/09/30 02:48:30;;;;;;;12.30;7.57;;;6.50;99.90;;;;;;5243608;28;20495;-47
2022/09/30 02:51:10;;;;;;;12.97;7.70;;;6.40;99.90;;;;;;5246522;28;20938;-49
2022/09/30 02:53:56;;;;;;;7.57;6.83;;;6.40;99.90;;;;;;5245263;28;20425;-49
2022/09/30 02:56:51;;;;;;;11.87;8.30;;;6.40;99.90;;;;;;5240512;28;20965;-49
2022/09/30 02:59:24;;;;;;;7.83;7.23;;;6.40;99.90;;;;;;5239561;28;20473;-47
2022/09/30 03:01:55;;;;;;;7.40;6.70;;;6.40;99.90;;;;;;5239271;28;20517;-47
2022/09/30 03:04:28;;;;;;;14.33;9.03;;;6.30;99.90;;;;;;5240543;28;21007;-48
2022/09/30 03:06:59;;;;;;;8.90;8.10;;;6.30;99.90;;;;;;5239661;28;21061;-49
2022/09/30 03:09:30;;;;;;;10.10;8.17;;;6.30;99.90;;;;;;5246275;28;20436;-48
2022/09/30 03:12:08;;;;;;;11.87;8.80;;;6.30;99.90;;;;;;5239045;28;20443;-48
2022/09/30 03:14:48;;;;;;;14.80;8.47;;;6.30;99.90;;;;;;5243143;28;20186;-48
2022/09/30 03:17:43;;;;;;;12.43;8.80;;;6.20;99.90;;;;;;5243851;28;20432;-48
2022/09/30 03:20:36;;;;;;;11.70;8.00;;;6.30;99.90;;;;;;5242107;28;20458;-49
2022/09/30 03:23:48;;;;;;;10.73;8.80;;;6.30;99.90;;;;;;5246554;28;20451;-48
2022/09/30 03:26:51;;;;;;;10.30;7.90;;;6.30;99.90;;;;;;5213514;28;20799;-48
2022/09/30 03:29:31;;;;;;;9.53;8.60;;;6.30;99.90;;;;;;5217690;28;20436;-49
2022/09/30 03:32:41;;;;;;;11.83;8.93;;;6.30;99.90;;;;;;5242526;28;20435;-49
2022/09/30 03:35:25;;;;;;;12.77;8.63;;;6.30;99.90;;;;;;5229834;28;20457;-48
2022/09/30 03:38:47;;;;;;;9.30;8.37;;;6.30;99.90;;;;;;5258874;28;20489;-47
2022/09/30 03:41:27;;;;;;;15.47;8.43;;;6.20;99.90;;;;;;5162634;28;20466;-51
2022/09/30 03:44:24;;;;;;;8.53;7.60;;;6.20;99.90;;;;;;5235718;28;20598;-47
2022/09/30 03:47:12;;;;;;;11.00;9.47;;;6.20;99.90;;;;;;5260536;28;20547;-47
2022/09/30 03:49:48;;;;;;;9.37;8.40;;;6.10;99.90;;;;;;5234593;28;20421;-46
2022/09/30 03:52:19;;;;;;;12.37;8.40;;;6.10;99.90;;;;;;5236465;28;20566;-46
2022/09/30 03:54:57;;;;;;;13.90;9.97;;;6.20;99.90;;;;;;5247335;28;20435;-52
2022/09/30 03:57:29;;;;;;;10.50;9.43;;;6.10;99.90;;;;;;5237982;28;20960;-47
2022/09/30 04:00:00;;;;;;;12.70;9.00;;;6.10;99.90;;;;;;5228700;28;20469;-48
2022/09/30 04:02:31;;;;;;;15.70;9.73;;;6.00;99.90;;;;;;5245594;28;20506;-46
2022/09/30 04:05:03;;;;;;;10.20;9.13;;;6.00;99.90;;;;;;5244833;28;20542;-49
2022/09/30 04:07:34;;;;;;;13.67;8.97;;;6.00;99.90;;;;;;5250775;28;20180;-46
2022/09/30 04:10:05;;;;;;;9.60;8.60;;;6.00;99.90;;;;;;5249649;28;20432;-46
2022/09/30 04:12:35;;;;;;;13.10;9.37;;;6.00;99.90;;;;;;5249222;28;20947;-46
2022/09/30 04:15:06;;;;;;;12.30;9.77;;;5.90;99.90;;;;;;5249339;28;20793;-51
2022/09/30 04:17:37;;;;;;;14.23;8.83;;;5.90;99.90;;;;;;5238695;28;20634;-46
2022/09/30 04:20:08;;;;;;;13.37;9.27;;;5.90;99.90;;;;;;5241474;28;20518;-48
2022/09/30 04:22:38;;;;;;;16.23;10.27;;;5.80;99.90;;;;;;5246838;28;20221;-46
2022/09/30 04:25:09;;;;;;;12.93;9.50;;;5.90;99.90;;;;;;5245887;28;20205;-47
2022/09/30 04:27:39;;;;;;;13.93;9.93;;;5.90;99.90;;;;;;5240743;28;20169;-46
2022/09/30 04:30:10;;;;;;;14.40;10.37;;;5.90;99.90;;;;;;5240780;28;20282;-46
2022/09/30 04:32:44;;;;;;;13.90;9.70;;;5.90;99.90;;;;;;5236290;28;20269;-48
2022/09/30 04:35:15;;;;;;;11.77;9.03;;;5.90;99.90;;;;;;5245530;28;20319;-46
2022/09/30 04:37:46;;;;;;;12.80;9.90;;;5.90;99.90;;;;;;5246384;28;20441;-53
2022/09/30 04:40:16;;;;;;;13.20;9.80;;;6.00;99.90;;;;;;5247851;28;20181;-46
2022/09/30 04:42:47;;;;;;;11.17;9.97;;;6.00;99.90;;;;;;5247412;28;20585;-47
2022/09/30 04:45:19;;;;;;;9.77;8.53;;;5.90;99.90;;;;;;5239758;28;20201;-47
2022/09/30 04:47:49;;;;;;;14.00;9.70;;;6.00;99.90;;;;;;5239951;28;20170;-48
2022/09/30 04:50:20;;;;;;;16.30;9.57;;;5.90;99.90;;;;;;5239813;28;20440;-46
2022/09/30 04:52:50;;;;;;;13.33;8.67;;;6.00;99.90;;;;;;5242617;28;20504;-47
2022/09/30 04:55:22;;;;;;;13.90;9.27;;;6.00;99.90;;;;;;5244619;28;20706;-46
2022/09/30 04:57:52;;;;;;;12.67;9.53;;;6.00;99.90;;;;;;5255346;28;20537;-46
2022/09/30 05:00:24;;;;;;;12.63;9.23;;;6.00;99.90;;;;;;5241247;28;20432;-46
2022/09/30 05:02:54;;;;;;;12.10;8.60;;;6.00;99.90;;;;;;5237598;28;20233;-46
2022/09/30 05:05:25;;;;;;;18.50;8.40;;;6.00;99.90;;;;;;5240244;28;20460;-49
2022/09/30 05:08:00;;;;;;;10.53;9.03;;;6.00;99.90;;;;;;5238966;28;20185;-48
2022/09/30 05:10:31;;;;;;;16.23;10.10;;;6.00;99.90;;;;;;5245044;28;20269;-48
2022/09/30 05:13:02;;;;;;;21.53;10.13;;;6.00;99.90;;;;;;5249141;28;20527;-47
2022/09/30 05:15:34;;;;;;;14.53;10.70;;;6.00;99.90;;;;;;5238377;28;20449;-46
2022/09/30 05:18:04;;;;;;;12.50;10.30;;;6.10;99.90;;;;;;5248175;28;20277;-46
2022/09/30 05:20:35;;;;;;;11.73;10.57;;;6.10;99.90;;;;;;5244342;28;20519;-48
2022/09/30 05:23:05;;;;;;;12.43;9.70;;;6.10;99.90;;;;;;5245868;28;20239;-49
2022/09/30 05:25:36;;;;;;;18.67;10.50;;;6.10;99.90;;;;;;5237914;28;20205;-47
2022/09/30 05:28:07;;;;;;;13.70;9.93;;;6.10;99.90;;;;;;5246399;28;20192;-47
2022/09/30 05:30:40;;;;;;;13.40;8.97;;;6.20;99.90;;;;;;5242747;28;20325;-49
2022/09/30 05:33:12;;;;;;;11.67;9.27;;;6.20;99.90;;;;;;5240060;28;20182;-46
2022/09/30 05:35:43;;;;;;;18.30;11.63;;;6.30;99.90;;;;;;5239695;28;20502;-48
2022/09/30 05:38:13;;;;;;;20.30;12.47;;;6.30;99.90;;;;;;5235024;28;20460;-47
2022/09/30 05:40:44;;;;;;;20.33;11.73;;;6.30;99.90;;;;;;5245925;28;20182;-47
2022/09/30 05:43:15;;;;;;;14.00;11.27;;;6.40;99.90;;;;;;5244605;28;20200;-46
2022/09/30 05:45:56;;;;;;;19.60;11.40;;;6.40;99.90;;;;;;5239709;28;20680;-49
2022/09/30 05:48:26;;;;;;;20.80;12.70;;;6.50;99.90;;;;;;5243486;28;20221;-46
2022/09/30 05:51:00;;;;;;;17.50;11.67;;;6.60;99.90;;;;;;5240382;28;20955;-46
2022/09/30 05:53:31;;;;;;;18.00;11.60;;;6.60;99.90;;;;;;5245596;28;20186;-47
2022/09/30 05:56:02;;;;;;;18.47;11.27;;;6.70;99.90;;;;;;5247572;28;20517;-46
2022/09/30 05:58:33;;;;;;;22.07;12.40;;;6.80;99.90;;;;;;5251314;28;20436;-46
2022/09/30 06:01:09;;;;;;;17.33;11.13;;;6.90;99.90;;;;;;5246952;28;20269;-46
2022/09/30 06:03:42;;;;;;;14.20;10.73;;;7.00;99.90;;;;;;5248444;28;20646;-46
2022/09/30 06:06:14;;;;;;;14.50;10.23;;;7.00;99.90;;;;;;5248470;28;20448;-46
2022/09/30 06:08:45;;;;;;;14.73;10.03;;;7.10;99.90;;;;;;5243385;28;21176;-49
2022/09/30 06:11:19;;;;;;;14.50;10.00;;;7.20;99.90;;;;;;5249012;28;20417;-46
2022/09/30 06:13:50;;;;;;;13.60;10.60;;;7.40;99.90;;;;;;5256489;28;20435;-48
2022/09/30 06:16:22;;;;;;;17.73;9.97;;;7.60;99.90;;;;;;5262992;28;20461;-47
2022/09/30 06:18:54;;;;;;;8.80;8.00;;;8.70;99.90;;;;;;5252234;28;20500;-47
2022/09/30 06:21:24;;;;;;;11.37;8.33;;;10.80;99.90;;;;;;5249936;28;20460;-47
2022/09/30 06:23:55;;;;;;;12.97;7.73;;;13.20;99.90;;;;;;5251022;28;20931;-46
2022/09/30 06:26:26;;;;;;;7.40;6.70;;;15.10;99.90;;;;;;5249070;28;20658;-45
2022/09/30 06:28:57;;;;;;;10.13;7.07;;;16.50;95.90;;;;;;5255063;28;20181;-48
2022/09/30 06:31:29;;;;;;;8.70;6.27;;;17.70;84.00;;;;;;5241002;28;20448;-47
2022/09/30 06:34:00;;;;;;;8.90;5.90;;;18.90;71.50;;;;;;5245807;28;20178;-48
2022/09/30 06:36:32;;;;;;;9.53;6.40;;;19.70;63.30;;;;;;5248995;28;20516;-47
2022/09/30 06:39:03;;;;;;;8.23;6.57;;;20.20;57.20;;;;;;5249258;28;20186;-47
2022/09/30 06:41:38;;;;;;;12.50;7.50;;;20.50;55.90;;;;;;5249295;28;20990;-49
2022/09/30 06:44:09;;;;;;;9.30;5.90;;;21.00;53.90;;;;;;5247718;28;20476;-50
2022/09/30 06:46:40;;;;;;;7.43;6.67;;;21.70;52.20;;;;;;5244014;28;20464;-48
2022/09/30 06:49:10;;;;;;;7.23;6.53;;;21.90;51.10;;;;;;5246237;28;20928;-49
2022/09/30 06:51:41;;;;;;;5.17;4.70;;;22.50;48.50;;;;;;5243843;28;20195;-46
2022/09/30 06:54:12;;;;;;;5.90;4.77;;;22.90;47.80;;;;;;5244825;28;20229;-49
2022/09/30 06:56:42;;;;;;;6.23;5.37;;;23.50;47.10;;;;;;5241718;28;20257;-48
2022/09/30 06:59:15;;;;;;;6.73;5.53;;;24.00;45.30;;;;;;5242042;28;20183;-49
2022/09/30 07:01:46;;;;;;;12.43;5.77;;;24.40;44.30;;;;;;5248841;28;20245;-46
2022/09/30 07:04:17;;;;;;;13.13;5.93;;;24.80;43.00;;;;;;5240652;28;20469;-49
2022/09/30 07:06:47;;;;;;;6.03;5.43;;;24.90;42.10;;;;;;5229707;28;20252;-47
2022/09/30 07:09:18;;;;;;;10.07;6.37;;;25.00;42.30;;;;;;5249396;28;20913;-46
2022/09/30 07:11:48;;;;;;;7.47;6.53;;;25.30;40.80;;;;;;5249899;28;20194;-46
2022/09/30 07:14:22;;;;;;;13.23;10.00;;;25.30;40.80;;;;;;5258346;28;20804;-47
2022/09/30 07:16:53;;;;;;;11.63;6.07;;;25.40;40.60;;;;;;5244547;28;20702;-47
2022/09/30 07:19:23;;;;;;;9.20;5.97;;;25.40;40.50;;;;;;5258106;28;20460;-48
2022/09/30 07:21:54;;;;;;;7.80;5.50;;;25.60;39.20;;;;;;5254473;28;20217;-46
2022/09/30 07:24:25;;;;;;;7.90;5.57;;;25.60;40.20;;;;;;5248032;28;20186;-47
2022/09/30 07:26:55;;;;;;;8.80;6.63;;;25.80;39.30;;;;;;5243397;28;20325;-46
2022/09/30 07:29:26;;;;;;;11.77;6.23;;;25.90;39.30;;;;;;5247633;28;20179;-46
2022/09/30 07:31:57;;;;;;;8.83;6.77;;;26.10;39.10;;;;;;5249321;28;20208;-47
2022/09/30 07:34:28;;;;;;;9.13;6.80;;;26.50;38.50;;;;;;5250163;28;20185;-46
2022/09/30 07:36:58;;;;;;;10.00;7.50;;;26.60;37.60;;;;;;5248260;28;20581;-47
2022/09/30 07:39:30;;;;;;;9.50;6.30;;;26.20;38.30;;;;;;5250596;28;20441;-49
2022/09/30 07:42:01;;;;;;;12.53;6.60;;;25.10;39.80;;;;;;5248964;28;20217;-55
2022/09/30 07:44:32;;;;;;;13.53;7.00;;;24.30;41.70;;;;;;5247847;28;20437;-46
2022/09/30 07:47:02;;;;;;;9.57;6.87;;;23.10;43.30;;;;;;5249347;28;20281;-47
2022/09/30 07:49:33;;;;;;;8.30;6.90;;;21.90;45.60;;;;;;5249377;28;20583;-46
2022/09/30 07:52:04;;;;;;;8.27;7.37;;;20.70;47.50;;;;;;5250412;28;20182;-47
2022/09/30 07:54:34;;;;;;;8.23;6.87;;;19.10;50.30;;;;;;5247534;28;20297;-47
2022/09/30 07:57:06;;;;;;;13.53;7.00;;;18.30;52.60;;;;;;5251231;28;20214;-50
2022/09/30 07:59:39;;;;;;;10.43;7.40;;;17.60;54.00;;;;;;5250753;28;20252;-48
2022/09/30 08:02:16;;;;;;;8.00;7.20;;;17.20;55.20;;;;;;5246362;28;20995;-46
2022/09/30 08:04:47;;;;;;;9.60;6.83;;;16.70;57.00;;;;;;5261566;28;20527;-49
2022/09/30 08:07:17;;;;;;;10.60;7.03;;;16.40;57.80;;;;;;5242181;28;20512;-47
2022/09/30 08:09:48;;;;;;;16.13;8.93;;;16.50;58.80;;;;;;5246763;28;20186;-46
2022/09/30 08:12:19;;;;;;;12.40;7.10;;;16.70;58.30;;;;;;5243818;28;20197;-47
2022/09/30 08:14:49;;;;;;;8.73;7.83;;;16.70;58.90;;;;;;5241932;28;20190;-47
2022/09/30 08:17:20;;;;;;;11.47;9.33;;;16.60;59.10;;;;;;5247048;28;20193;-48
2022/09/30 08:19:50;;;;;;;14.30;8.50;;;16.10;60.30;;;;;;5242974;28;20214;-46
2022/09/30 08:22:22;;;;;;;13.20;7.70;;;15.60;62.50;;;;;;5244705;28;20208;-47
2022/09/30 08:24:53;;;;;;;11.90;9.20;;;15.10;65.70;;;;;;5247497;28;20566;-50
2022/09/30 08:27:24;;;;;;;17.43;9.17;;;14.80;69.20;;;;;;5234329;28;20433;-51
2022/09/30 08:29:54;;;;;;;11.60;8.80;;;14.60;72.90;;;;;;5245256;28;20221;-46
2022/09/30 08:32:29;;;;;;;13.20;7.57;;;14.50;77.30;;;;;;5236010;28;20467;-54
2022/09/30 08:35:00;;;;;;;17.70;9.27;;;14.60;79.00;;;;;;5239631;28;20596;-46
2022/09/30 08:37:30;;;;;;;13.90;8.70;;;14.30;82.70;;;;;;5245281;28;20623;-47
2022/09/30 08:40:01;;;;;;;16.70;9.93;;;14.10;88.10;;;;;;5245377;28;20206;-47
2022/09/30 08:43:26;;;;;;;19.33;9.70;;;13.90;91.60;;;;;;5245531;28;20669;-48
2022/09/30 08:46:16;;;;;;;17.50;10.17;;;13.80;94.30;;;;;;5238314;28;20453;-46
2022/09/30 08:49:10;;;;;;;13.57;9.57;;;13.70;96.10;;;;;;5242796;28;20482;-50
2022/09/30 08:51:44;;;;;;;10.20;9.10;;;13.60;97.80;;;;;;5240286;28;20436;-47
2022/09/30 08:54:23;;;;;;;15.33;11.17;;;13.60;99.10;;;;;;5242518;28;20427;-48
2022/09/30 08:56:54;;;;;;;12.83;9.50;;;13.80;99.90;;;;;;5236976;28;20459;-48
2022/09/30 08:59:35;;;;;;;14.63;8.60;;;13.90;99.50;;;;;;5243414;28;20943;-48
2022/09/30 09:02:12;;;;;;;13.40;9.60;;;14.00;99.30;;;;;;5241551;28;20494;-50
2022/09/30 09:04:44;;;;;;;15.03;9.40;;;14.20;99.50;;;;;;5236928;28;20451;-47
2022/09/30 09:07:14;;;;;;;11.97;8.70;;;14.30;99.20;;;;;;5232724;28;20484;-47
2022/09/30 09:09:57;;;;;;;12.83;9.37;;;14.40;98.90;;;;;;5233979;28;20574;-46
2022/09/30 09:12:52;;;;;;;16.00;9.97;;;14.40;98.50;;;;;;5243437;28;20256;-46
2022/09/30 09:15:28;;;;;;;13.33;10.00;;;14.40;97.30;;;;;;5239528;28;20986;-46
2022/09/30 09:18:19;;;;;;;13.90;10.43;;;14.40;97.60;;;;;;5233677;28;20844;-51
2022/09/30 09:20:58;;;;;;;16.13;11.73;;;14.60;98.10;;;;;;5245846;28;20449;-48
2022/09/30 09:23:31;;;;;;;19.50;11.80;;;14.80;97.40;;;;;;5238520;28;20498;-47
2022/09/30 09:26:03;;;;;;;11.13;9.20;;;14.80;96.40;;;;;;5243810;28;20457;-49
2022/09/30 09:28:56;;;;;;;11.87;8.50;;;14.80;96.40;;;;;;5239832;28;20475;-48
2022/09/30 09:31:27;;;;;;;17.73;10.20;;;15.20;94.70;;;;;;5252499;28;20448;-47
2022/09/30 09:34:06;;;;;;;13.30;9.23;;;15.20;93.90;;;;;;5240210;28;20563;-51
2022/09/30 09:37:09;;;;;;;17.43;9.03;;;15.10;93.40;;;;;;5232784;28;20214;-51
2022/09/30 09:39:58;;;;;;;14.40;9.40;;;15.20;92.70;;;;;;5237483;28;20450;-52
2022/09/30 09:42:50;;;;;;;14.50;9.47;;;15.30;92.30;;;;;;5238264;28;20460;-51
2022/09/30 09:45:21;;;;;;;13.23;9.17;;;15.30;91.60;;;;;;5239909;28;20909;-51
2022/09/30 09:47:52;;;;;;;10.70;9.07;;;15.30;90.70;;;;;;5249102;28;20447;-51
2022/09/30 09:50:37;;;;;;;22.10;11.20;;;15.40;91.50;;;;;;5241409;28;20178;-49
2022/09/30 09:53:32;;;;;;;11.47;10.27;;;15.40;91.00;;;;;;5247498;28;20506;-53
2022/09/30 09:56:17;;;;;;;12.40;10.07;;;15.40;90.90;;;;;;5240281;28;20455;-52
2022/09/30 09:59:15;;;;;;;11.73;7.90;;;15.30;90.80;;;;;;5236933;28;20494;-50
2022/09/30 10:01:48;;;;;;;13.63;9.40;;;15.30;90.90;;;;;;5249000;28;20941;-49
2022/09/30 10:04:26;;;;;;;8.50;7.03;;;15.30;90.50;;;;;;5240405;28;20974;-51
2022/09/30 10:06:59;;;;;;;12.57;7.47;;;15.40;90.30;;;;;;5237840;28;20559;-51
2022/09/30 10:09:33;;;;;;;9.53;7.23;;;15.50;89.50;;;;;;5248795;28;20804;-52
2022/09/30 10:12:04;;;;;;;9.40;7.20;;;15.60;88.70;;;;;;5245068;28;20450;-50
2022/09/30 10:14:45;;;;;;;9.70;6.30;;;15.50;87.10;;;;;;5245198;28;20448;-51
2022/09/30 10:17:30;;;;;;;7.27;6.47;;;15.60;88.10;;;;;;5243519;28;20182;-52
2022/09/30 10:20:16;;;;;;;6.97;6.40;;;15.60;87.30;;;;;;5245800;28;20432;-52
2022/09/30 10:22:46;;;;;;;8.77;6.40;;;15.60;86.60;;;;;;5247006;28;20472;-48
2022/09/30 10:25:22;;;;;;;7.70;5.80;;;15.60;85.80;;;;;;5250380;28;20777;-52
2022/09/30 10:27:57;;;;;;;12.10;6.10;;;15.60;85.30;;;;;;5250845;28;20697;-50
2022/09/30 10:30:40;;;;;;;6.47;5.87;;;15.50;84.30;;;;;;5246003;28;20744;-51
2022/09/30 10:33:22;;;;;;;6.27;5.57;;;15.50;85.80;;;;;;5236268;28;20626;-51
2022/09/30 10:36:00;;;;;;;5.70;5.03;;;15.50;86.80;;;;;;5236527;28;20468;-51
2022/09/30 10:38:33;;;;;;;5.70;5.20;;;15.60;87.30;;;;;;5241375;28;20495;-51
2022/09/30 10:41:04;;;;;;;5.53;5.03;;;15.60;87.30;;;;;;5251720;28;20459;-51
2022/09/30 10:43:51;;;;;;;4.93;4.63;;;15.70;86.30;;;;;;5246221;28;20462;-51
2022/09/30 10:46:25;;;;;;;6.33;5.53;;;15.70;86.30;;;;;;5232079;28;20520;-51
2022/09/30 10:48:57;;;;;;;8.30;6.30;;;15.90;86.00;;;;;;5232602;28;20507;-49
2022/09/30 10:51:33;;;;;;;8.23;5.77;;;15.90;83.30;;;;;;5234512;28;20498;-50
2022/09/30 10:54:05;;;;;;;5.03;4.60;;;15.80;82.40;;;;;;5237862;28;20498;-52
2022/09/30 10:56:51;;;;;;;6.20;3.87;;;15.80;83.30;;;;;;5233151;28;20881;-54
2022/09/30 10:59:33;;;;;;;7.30;4.67;;;15.90;81.00;;;;;;5235648;28;20520;-51
2022/09/30 11:02:24;;;;;;;4.20;4.00;;;15.90;78.90;;;;;;5232341;28;21198;-50
2022/09/30 11:05:19;;;;;;;5.13;4.70;;;16.00;79.40;;;;;;5233696;28;20452;-51
2022/09/30 11:08:05;;;;;;;6.97;4.03;;;16.10;78.20;;;;;;5239720;28;20437;-51
2022/09/30 11:10:39;;;;;;;6.43;3.47;;;16.20;76.20;;;;;;5233729;28;20425;-53
2022/09/30 11:13:25;;;;;;;4.63;3.47;;;16.40;75.90;;;;;;5239659;28;20468;-51
2022/09/30 11:16:08;;;;;;;7.27;5.30;;;16.30;74.80;;;;;;5232807;28;20922;-50
2022/09/30 11:19:06;;;;;;;4.53;4.13;;;16.30;74.40;;;;;;5243844;28;20508;-51
2022/09/30 11:21:47;;;;;;;4.80;4.23;;;16.30;75.50;;;;;;5239837;28;20899;-52
2022/09/30 11:24:30;;;;;;;4.73;3.57;;;16.20;75.00;;;;;;5238962;28;21797;-48
2022/09/30 11:27:27;;;;;;;3.53;3.23;;;16.20;73.20;;;;;;5239311;28;20503;-51
2022/09/30 11:30:14;;;;;;;4.17;3.77;;;16.30;71.50;;;;;;5224469;28;20471;-51
2022/09/30 11:33:00;;;;;;;2.67;2.50;;;16.50;71.10;;;;;;5242817;28;20424;-54
2022/09/30 11:35:52;;;;;;;3.57;3.17;;;16.40;68.70;;;;;;5238471;28;20487;-51
2022/09/30 11:38:29;;;;;;;3.10;2.87;;;16.40;68.80;;;;;;5241436;28;20437;-51
2022/09/30 11:41:11;;;;;;;3.30;3.10;;;16.40;67.90;;;;;;5246784;28;20436;-49
2022/09/30 11:44:15;;;;;;;6.50;3.10;;;16.40;68.80;;;;;;5240468;28;20439;-50
2022/09/30 11:47:09;;;;;;;3.50;3.20;;;16.50;69.30;;;;;;5252255;28;20446;-49
2022/09/30 11:49:42;;;;;;;3.33;3.03;;;16.50;68.10;;;;;;5244815;28;20437;-51
2022/09/30 11:52:25;;;;;;;2.23;2.13;;;16.70;67.90;;;;;;5238533;28;20531;-49
2022/09/30 11:55:08;;;;;;;5.43;2.70;;;16.90;66.40;;;;;;5242072;28;20519;-51
2022/09/30 11:57:58;;;;;;;4.90;3.00;;;16.80;66.20;;;;;;5244004;28;20505;-48
2022/09/30 12:00:32;;;;;;;6.43;3.10;;;16.70;68.70;;;;;;5245734;28;20468;-50
2022/09/30 12:03:32;;;;;;;5.27;3.40;;;16.60;69.20;;;;;;5237930;28;20480;-49
2022/09/30 12:06:18;;;;;;;3.70;3.40;;;16.70;67.90;;;;;;5248530;28;20820;-50
2022/09/30 12:08:58;;;;;;;3.27;2.40;;;16.80;67.10;;;;;;5251281;28;20476;-51
2022/09/30 12:11:41;;;;;;;4.23;2.37;;;16.90;67.30;;;;;;5237936;28;20513;-51
2022/09/30 12:14:39;;;;;;;3.37;3.17;;;17.10;66.80;;;;;;5249384;28;20452;-50
2022/09/30 12:17:32;;;;;;;4.77;2.87;;;17.20;64.80;;;;;;5241221;28;20469;-52
2022/09/30 12:20:20;;;;;;;7.10;2.67;;;17.40;63.90;;;;;;5246003;28;20499;-51
2022/09/30 12:23:06;;;;;;;2.30;2.13;;;17.40;63.70;;;;;;5243819;28;20812;-51
2022/09/30 12:25:46;;;;;;;2.40;2.17;;;17.30;62.90;;;;;;5248955;28;20532;-51
2022/09/30 12:31:46;;;;;;;2.03;1.80;;;17.20;63.20;;;;;;5238708;28;20493;-52
2022/09/30 12:34:49;;;;;;;3.10;2.40;;;17.20;63.10;;;;;;5240415;28;20929;-50
2022/09/30 12:37:41;;;;;;;4.77;2.47;;;17.10;63.90;;;;;;5251690;28;20452;-47
2022/09/30 12:40:32;;;;;;;2.90;2.33;;;17.30;62.40;;;;;;5233424;28;20443;-47
2022/09/30 12:43:09;;;;;;;2.23;2.13;;;17.60;60.60;;;;;;5237883;28;20932;-47
2022/09/30 12:46:01;;;;;;;1.60;1.60;;;17.50;62.20;;;;;;5241215;28;20496;-47
2022/09/30 12:48:41;;;;;;;4.73;2.00;;;17.50;59.90;;;;;;5233442;28;20484;-49
2022/09/30 12:51:28;;;;;;;2.70;1.63;;;17.40;58.50;;;;;;5246268;28;20527;-46
2022/09/30 12:54:18;;;;;;;1.90;1.80;;;17.50;56.40;;;;;;5242601;28;20444;-48
2022/09/30 12:56:55;;;;;;;1.77;1.67;;;17.50;56.80;;;;;;5232001;28;20859;-49
2022/09/30 12:59:43;;;;;;;1.40;1.37;;;17.40;57.60;;;;;;5232607;28;20451;-54
2022/09/30 13:02:36;;;;;;;1.97;1.53;;;17.40;57.00;;;;;;5238121;28;20463;-50
2022/09/30 13:05:42;;;;;;;1.60;1.60;;;17.40;57.20;;;;;;5246039;28;20967;-50
2022/09/30 13:08:13;;;;;;;2.57;2.40;;;17.50;57.30;;;;;;5240572;28;20924;-48
2022/09/30 13:10:47;;;;;;;16.40;2.40;;;17.40;57.50;;;;;;5232980;28;20468;-48
2022/09/30 13:13:31;;;;;;;1.93;1.87;;;17.40;57.60;;;;;;5231647;28;20178;-48
2022/09/30 13:16:03;;;;;;;2.27;2.17;;;17.30;57.90;;;;;;5231481;28;20491;-49
2022/09/30 13:18:33;;;;;;;1.50;1.50;;;17.20;58.90;;;;;;5237789;28;20921;-47
2022/09/30 13:21:04;;;;;;;2.53;2.00;;;17.10;59.10;;;;;;5250188;28;20431;-48
2022/09/30 13:23:56;;;;;;;3.30;2.40;;;17.20;58.40;;;;;;5245508;28;20174;-49
2022/09/30 13:26:39;;;;;;;3.77;3.17;;;17.10;59.10;;;;;;5244307;28;20768;-48
2022/09/30 13:29:15;;;;;;;2.47;2.30;;;16.80;59.30;;;;;;5249272;28;20781;-47
2022/09/30 13:31:49;;;;;;;1.13;1.13;;;17.00;58.60;;;;;;5269382;28;20910;-48
2022/09/30 13:34:46;;;;;;;2.13;2.03;;;17.10;58.20;;;;;;5245445;28;22052;-52
2022/09/30 13:37:35;;;;;;;1.33;1.33;;;17.40;58.10;;;;;;5239628;28;20515;-46
2022/09/30 13:40:15;;;;;;;4.67;3.20;;;17.40;57.90;;;;;;5243717;28;20595;-50
2022/09/30 13:42:51;;;;;;;2.43;2.23;;;17.50;58.10;;;;;;5236600;28;20491;-48
2022/09/30 13:45:32;;;;;;;2.97;2.77;;;17.30;57.80;;;;;;5239942;28;20445;-49
2022/09/30 13:48:09;;;;;;;2.50;2.30;;;17.10;59.60;;;;;;5241036;28;20487;-46